Time;durP1;ratioP1;P1;durP2;ratioP2;P2;SDS_P1;SDS_P2;PMS_P1;PMS_P2;Temp;Humidity;BMP_temperature;BMP_pressure;BME280_temperature;BME280_humidity;BME280_pressure;Samples;Min_cycle;Max_cycle;Signal;HPM_P1;HPM_P2
2022/05/26 00:02:23;;;;;;;9.73;6.18;;;13.00;99.90;;;;;;5038330;28;20053;-66
2022/05/26 00:04:49;;;;;;;10.40;6.72;;;13.00;99.90;;;;;;5017171;28;20045;-66
2022/05/26 00:07:15;;;;;;;7.97;5.43;;;13.10;99.90;;;;;;5028912;28;20053;-66
2022/05/26 00:09:42;;;;;;;6.82;4.53;;;13.10;99.90;;;;;;5046787;28;20042;-66
2022/05/26 00:12:10;;;;;;;6.82;4.82;;;13.20;99.90;;;;;;5029717;28;20045;-66
2022/05/26 00:14:36;;;;;;;6.25;3.22;;;13.00;99.90;;;;;;5030957;28;20045;-66
2022/05/26 00:17:02;;;;;;;5.43;2.90;;;13.10;99.90;;;;;;5063550;28;20045;-66
2022/05/26 00:19:28;;;;;;;6.13;3.53;;;13.10;99.90;;;;;;5046681;28;20509;-66
2022/05/26 00:21:54;;;;;;;3.30;2.72;;;13.00;99.90;;;;;;5047268;28;20057;-66
2022/05/26 00:24:20;;;;;;;4.85;2.97;;;13.10;99.90;;;;;;5031652;28;20037;-66
2022/05/26 00:26:47;;;;;;;3.65;2.88;;;12.90;99.90;;;;;;5029414;28;20485;-66
2022/05/26 00:29:12;;;;;;;5.55;2.83;;;13.00;99.90;;;;;;5031143;28;20093;-66
2022/05/26 00:31:38;;;;;;;4.75;3.10;;;13.10;99.90;;;;;;5031930;28;20056;-66
2022/05/26 00:34:04;;;;;;;4.75;3.17;;;13.10;99.90;;;;;;5042683;28;20132;-66
2022/05/26 00:36:39;;;;;;;7.20;3.95;;;13.10;99.90;;;;;;5046988;28;20105;-66
2022/05/26 00:39:14;;;;;;;7.78;4.03;;;13.10;99.90;;;;;;5019699;28;20128;-66
2022/05/26 00:41:43;;;;;;;8.63;5.28;;;13.10;99.90;;;;;;5029984;28;20065;-66
2022/05/26 00:44:09;;;;;;;6.78;5.40;;;13.20;99.90;;;;;;5030716;28;20516;-66
2022/05/26 00:46:46;;;;;;;7.78;5.32;;;13.20;99.90;;;;;;5046629;28;20175;-66
2022/05/26 00:49:30;;;;;;;8.43;6.90;;;13.30;99.90;;;;;;5030240;28;20049;-66
2022/05/26 00:51:57;;;;;;;10.10;7.65;;;13.20;99.90;;;;;;5029928;28;20053;-66
2022/05/26 00:54:25;;;;;;;11.75;8.38;;;13.20;99.90;;;;;;5031386;28;20045;-66
2022/05/26 00:57:04;;;;;;;11.98;8.85;;;13.30;99.90;;;;;;5032721;28;20045;-66
2022/05/26 00:59:45;;;;;;;;;;;13.30;99.90;;;;;;5047115;28;20084;-66
2022/05/26 01:02:13;;;;;;;14.60;9.98;;;13.30;99.90;;;;;;5062607;28;19921;-66
2022/05/26 01:04:47;;;;;;;22.73;12.75;;;13.40;99.90;;;;;;5056893;28;20049;-66
2022/05/26 01:07:21;;;;;;;18.48;12.73;;;13.30;99.90;;;;;;5023807;28;20052;-66
2022/05/26 01:09:46;;;;;;;25.52;13.10;;;13.30;99.90;;;;;;5028218;28;20140;-66
2022/05/26 01:12:12;;;;;;;25.30;12.93;;;13.30;99.90;;;;;;5025857;28;20037;-66
2022/05/26 01:14:45;;;;;;;27.40;14.75;;;13.40;99.90;;;;;;5034168;28;20124;-66
2022/05/26 01:17:26;;;;;;;26.25;14.55;;;13.50;99.90;;;;;;5033021;28;20056;-66
2022/05/26 01:20:11;;;;;;;28.10;14.73;;;13.50;99.90;;;;;;5024236;28;20050;-66
2022/05/26 01:23:14;;;;;;;28.77;15.60;;;13.40;99.90;;;;;;5026861;28;20057;-66
2022/05/26 01:25:48;;;;;;;29.98;17.27;;;13.50;99.90;;;;;;5043771;28;20044;-66
2022/05/26 01:28:40;;;;;;;30.33;16.83;;;13.50;99.90;;;;;;5032376;28;20045;-66
2022/05/26 01:31:17;;;;;;;33.33;16.17;;;13.50;99.90;;;;;;5028446;28;20049;-66
2022/05/26 01:34:02;;;;;;;28.92;16.92;;;13.50;99.90;;;;;;5031754;28;20046;-66
2022/05/26 01:36:43;;;;;;;32.15;16.45;;;13.50;99.90;;;;;;5016843;28;20046;-66
2022/05/26 01:39:11;;;;;;;43.85;18.77;;;13.60;99.90;;;;;;5031076;28;20048;-66
2022/05/26 01:41:55;;;;;;;35.30;18.23;;;13.60;99.90;;;;;;5025380;28;20057;-66
2022/05/26 01:44:47;;;;;;;33.70;16.58;;;13.50;99.90;;;;;;5027146;28;20045;-66
2022/05/26 01:47:55;;;;;;;32.38;16.95;;;13.50;99.90;;;;;;5027272;28;20084;-66
2022/05/26 01:50:20;;;;;;;29.50;16.38;;;13.60;99.90;;;;;;5025426;28;20061;-66
2022/05/26 01:52:59;;;;;;;34.38;16.88;;;13.60;99.90;;;;;;5024978;28;20741;-66
2022/05/26 01:55:34;;;;;;;39.65;16.38;;;13.60;99.90;;;;;;5044664;28;20045;-66
2022/05/26 01:58:12;;;;;;;39.92;16.15;;;13.40;99.90;;;;;;5023306;28;20073;-66
2022/05/26 02:00:39;;;;;;;34.72;16.00;;;13.40;99.90;;;;;;5028676;28;20049;-66
2022/05/26 02:03:09;;;;;;;34.58;15.93;;;13.40;99.90;;;;;;5023133;28;20053;-66
2022/05/26 02:05:42;;;;;;;33.47;15.75;;;13.40;99.90;;;;;;5026463;28;20053;-66
2022/05/26 02:08:23;;;;;;;44.10;15.82;;;13.40;99.90;;;;;;5029716;28;20077;-66
2022/05/26 02:11:00;;;;;;;39.28;16.17;;;13.40;99.90;;;;;;5030710;28;20055;-66
2022/05/26 02:13:37;;;;;;;40.85;16.40;;;13.40;99.90;;;;;;5028465;28;20072;-66
2022/05/26 02:16:42;;;;;;;36.63;15.85;;;13.30;99.90;;;;;;5044789;28;20041;-66
2022/05/26 02:19:28;;;;;;;37.95;16.67;;;13.40;99.90;;;;;;4930836;29;20054;-66
2022/05/26 02:22:11;;;;;;;35.28;16.13;;;13.30;99.90;;;;;;4939796;29;20055;-66
2022/05/26 02:24:43;;;;;;;38.60;15.45;;;13.30;99.90;;;;;;4931536;29;20147;-66
2022/05/26 02:27:09;;;;;;;41.35;15.95;;;13.30;99.90;;;;;;4942076;29;20095;-66
2022/05/26 02:29:53;;;;;;;37.72;15.73;;;13.40;99.90;;;;;;4944989;29;20052;-66
2022/05/26 02:32:28;;;;;;;37.38;17.25;;;13.30;99.90;;;;;;4946183;29;20047;-66
2022/05/26 02:34:56;;;;;;;51.65;17.85;;;13.50;99.90;;;;;;4929958;29;20043;-66
2022/05/26 02:37:24;;;;;;;41.20;16.67;;;13.60;99.90;;;;;;4927021;29;20048;-66
2022/05/26 02:39:50;;;;;;;44.45;17.83;;;13.50;99.90;;;;;;4938291;29;20119;-66
2022/05/26 02:42:17;;;;;;;42.55;17.05;;;13.50;99.90;;;;;;4952105;29;20163;-66
2022/05/26 02:44:43;;;;;;;36.13;16.05;;;13.60;99.90;;;;;;4925798;29;20082;-66
2022/05/26 02:47:16;;;;;;;44.08;17.05;;;13.50;99.90;;;;;;4935570;29;20120;-66
2022/05/26 02:50:06;;;;;;;45.88;16.65;;;13.50;99.90;;;;;;4931760;29;20571;-66
2022/05/26 02:53:13;;;;;;;44.55;17.33;;;13.60;99.90;;;;;;4934295;29;20059;-66
2022/05/26 02:56:05;;;;;;;38.67;16.65;;;13.60;99.90;;;;;;4976196;28;20053;-66
2022/05/26 02:58:50;;;;;;;51.00;16.02;;;13.60;99.90;;;;;;5022173;28;20045;-66
2022/05/26 03:01:26;;;;;;;45.38;15.35;;;13.60;99.90;;;;;;5052110;28;20129;-66
2022/05/26 03:04:08;;;;;;;37.45;15.75;;;13.70;99.90;;;;;;5043627;28;20041;-66
2022/05/26 03:06:46;;;;;;;39.45;15.20;;;13.60;99.90;;;;;;5043967;28;20093;-66
2022/05/26 03:09:12;;;;;;;41.75;14.27;;;13.60;99.90;;;;;;5055579;28;20151;-66
2022/05/26 03:11:50;;;;;;;39.97;14.07;;;13.60;99.90;;;;;;5031737;28;20092;-66
2022/05/26 03:14:18;;;;;;;39.85;13.82;;;13.70;99.90;;;;;;5034160;28;20057;-66
2022/05/26 03:16:44;;;;;;;40.58;13.43;;;13.70;99.90;;;;;;5049496;28;20049;-66
2022/05/26 03:19:10;;;;;;;41.67;13.05;;;13.60;99.90;;;;;;5049883;28;20132;-66
2022/05/26 03:21:36;;;;;;;38.75;13.00;;;13.70;99.90;;;;;;5032412;28;20080;-66
2022/05/26 03:24:03;;;;;;;39.65;11.57;;;13.60;99.90;;;;;;5030227;28;20041;-66
2022/05/26 03:26:28;;;;;;;35.08;11.60;;;13.60;99.90;;;;;;5034798;28;20053;-66
2022/05/26 03:28:54;;;;;;;37.15;11.73;;;13.70;99.90;;;;;;5033727;28;20485;-66
2022/05/26 03:31:20;;;;;;;46.42;10.80;;;13.50;99.90;;;;;;5032151;28;20425;-66
2022/05/26 03:42:00;;;;;;;35.13;9.55;;;13.60;99.90;;;;;;5030647;28;20053;-66
2022/05/26 03:44:27;;;;;;;37.22;10.88;;;13.60;99.90;;;;;;5033585;28;20049;-66
2022/05/26 03:46:53;;;;;;;34.38;9.25;;;13.60;99.90;;;;;;5029647;28;20049;-66
2022/05/26 03:49:19;;;;;;;39.33;10.20;;;13.70;99.90;;;;;;5031430;28;20049;-66
2022/05/26 03:51:45;;;;;;;37.40;10.52;;;13.50;99.90;;;;;;5029317;28;20513;-66
2022/05/26 03:54:10;;;;;;;36.65;9.82;;;13.70;99.90;;;;;;5035056;28;20087;-66
2022/05/26 03:56:36;;;;;;;33.50;8.55;;;13.50;99.90;;;;;;5049908;28;20056;-66
2022/05/26 03:59:02;;;;;;;30.55;10.05;;;13.50;99.90;;;;;;5044536;28;20060;-66
2022/05/26 04:01:28;;;;;;;38.17;9.35;;;13.50;99.90;;;;;;5053355;28;20385;-66
2022/05/26 04:03:55;;;;;;;33.20;9.13;;;13.50;99.90;;;;;;5053925;28;20084;-66
2022/05/26 04:06:22;;;;;;;32.13;8.88;;;13.40;99.90;;;;;;5044062;28;20046;-66
2022/05/26 04:08:47;;;;;;;30.83;9.07;;;13.50;99.90;;;;;;5023403;28;20582;-66
2022/05/26 04:11:14;;;;;;;30.08;8.10;;;13.50;99.90;;;;;;5011885;28;20075;-66
2022/05/26 04:13:39;;;;;;;31.35;8.68;;;13.40;99.90;;;;;;5044561;28;20048;-66
2022/05/26 04:16:06;;;;;;;34.45;8.38;;;13.50;99.90;;;;;;5029733;28;20046;-66
2022/05/26 04:18:32;;;;;;;27.15;8.10;;;13.50;99.90;;;;;;5027505;28;20061;-66
2022/05/26 04:21:09;;;;;;;25.27;7.20;;;13.40;99.90;;;;;;5034536;28;20053;-66
2022/05/26 04:23:35;;;;;;;34.75;9.02;;;13.40;99.90;;;;;;5042230;28;20152;-66
2022/05/26 04:26:03;;;;;;;36.58;8.63;;;13.40;99.90;;;;;;5065513;28;20091;-66
2022/05/26 04:28:28;;;;;;;30.50;8.27;;;13.40;99.90;;;;;;5058418;28;20042;-66
2022/05/26 04:30:54;;;;;;;32.05;7.78;;;13.50;99.90;;;;;;5030850;28;20052;-66
2022/05/26 04:33:20;;;;;;;37.40;8.50;;;13.50;99.90;;;;;;5012965;28;20053;-66
2022/05/26 04:35:45;;;;;;;34.60;8.27;;;13.50;99.90;;;;;;5013280;28;20053;-66
2022/05/26 04:38:11;;;;;;;36.10;8.20;;;13.50;99.90;;;;;;5034810;28;20072;-66
2022/05/26 04:40:37;;;;;;;30.85;7.82;;;13.50;99.90;;;;;;5032001;28;20049;-66
2022/05/26 04:43:02;;;;;;;31.38;7.28;;;13.60;99.90;;;;;;5033251;28;20041;-66
2022/05/26 04:45:28;;;;;;;32.00;8.13;;;13.60;99.90;;;;;;5045475;28;20074;-66
2022/05/26 04:47:54;;;;;;;19.73;6.65;;;13.50;99.90;;;;;;5060576;28;20056;-66
2022/05/26 04:50:21;;;;;;;29.23;7.65;;;13.60;99.90;;;;;;5012158;28;20041;-66
2022/05/26 04:52:47;;;;;;;29.67;8.05;;;13.50;99.90;;;;;;5024292;28;20069;-67
2022/05/26 04:55:13;;;;;;;26.70;6.82;;;13.50;99.90;;;;;;5029897;28;20052;-66
2022/05/26 04:57:39;;;;;;;28.35;6.25;;;13.60;99.90;;;;;;5041499;28;20095;-66
2022/05/26 05:00:10;;;;;;;26.65;6.22;;;13.60;99.90;;;;;;5024049;28;20095;-66
2022/05/26 05:02:36;;;;;;;24.92;6.30;;;13.50;99.90;;;;;;5032944;28;20391;-66
2022/05/26 05:05:02;;;;;;;20.60;6.38;;;13.60;99.90;;;;;;5028350;28;20111;-66
2022/05/26 05:07:28;;;;;;;22.15;6.55;;;13.60;99.90;;;;;;5017083;28;20084;-66
2022/05/26 05:09:54;;;;;;;21.58;5.75;;;13.70;99.90;;;;;;5046222;28;20046;-66
2022/05/26 05:12:22;;;;;;;19.55;5.57;;;13.60;99.90;;;;;;5048038;28;20101;-66
2022/05/26 05:14:50;;;;;;;21.52;5.22;;;13.40;99.90;;;;;;5030764;28;20120;-66
2022/05/26 05:17:17;;;;;;;14.57;5.05;;;13.50;99.90;;;;;;5045055;28;20061;-66
2022/05/26 05:19:43;;;;;;;18.13;4.60;;;13.50;99.90;;;;;;5028376;28;20088;-66
2022/05/26 05:22:32;;;;;;;14.43;4.10;;;13.70;99.90;;;;;;5025725;28;20077;-66
2022/05/26 05:25:08;;;;;;;14.00;3.72;;;13.50;99.90;;;;;;5028308;28;20121;-66
2022/05/26 05:27:53;;;;;;;13.65;3.60;;;13.70;99.90;;;;;;5027826;28;20038;-66
2022/05/26 05:30:34;;;;;;;21.02;4.97;;;13.60;99.90;;;;;;5045747;28;20052;-66
2022/05/26 05:33:06;;;;;;;13.75;3.78;;;13.80;99.90;;;;;;5027853;28;20497;-66
2022/05/26 05:35:39;;;;;;;10.55;3.13;;;13.80;99.90;;;;;;5026806;28;20041;-66
2022/05/26 05:38:05;;;;;;;10.60;3.72;;;13.70;99.90;;;;;;5039600;28;20490;-66
2022/05/26 05:40:31;;;;;;;12.23;2.97;;;13.70;99.90;;;;;;5022944;28;20049;-66
2022/05/26 05:42:57;;;;;;;14.88;3.08;;;13.70;99.90;;;;;;5026378;28;20052;-66
2022/05/26 05:45:23;;;;;;;10.23;2.92;;;13.80;99.90;;;;;;5010415;28;20053;-66
2022/05/26 05:47:49;;;;;;;10.88;2.78;;;13.80;99.90;;;;;;5032735;28;20041;-66
2022/05/26 05:50:15;;;;;;;10.85;2.58;;;13.80;99.90;;;;;;5012328;28;20049;-66
2022/05/26 05:52:40;;;;;;;7.20;2.40;;;13.90;99.90;;;;;;5032863;28;20050;-66
2022/05/26 05:55:07;;;;;;;12.05;2.67;;;13.90;99.90;;;;;;5028247;28;20076;-66
2022/05/26 05:57:32;;;;;;;10.63;2.90;;;13.90;99.90;;;;;;5027201;28;20037;-66
2022/05/26 05:59:58;;;;;;;14.75;3.17;;;14.10;99.90;;;;;;5030994;28;20052;-66
2022/05/26 06:02:24;;;;;;;12.80;2.92;;;14.00;99.90;;;;;;5030085;28;20080;-66
2022/05/26 06:04:49;;;;;;;9.93;2.30;;;14.20;99.90;;;;;;5030833;28;20041;-66
2022/05/26 06:07:21;;;;;;;8.02;2.60;;;14.10;99.90;;;;;;5023197;28;20045;-66
2022/05/26 06:09:48;;;;;;;10.65;1.95;;;14.10;99.90;;;;;;5023959;28;20073;-66
2022/05/26 06:12:14;;;;;;;7.72;2.05;;;14.10;99.90;;;;;;5060152;28;20049;-66
2022/05/26 06:14:42;;;;;;;9.63;2.33;;;14.30;99.90;;;;;;5043354;28;20095;-66
2022/05/26 06:17:08;;;;;;;10.88;2.10;;;14.20;99.90;;;;;;5041544;28;20044;-66
2022/05/26 06:19:38;;;;;;;6.55;1.90;;;14.30;99.90;;;;;;5044242;28;20053;-66
2022/05/26 06:22:14;;;;;;;7.68;2.00;;;14.20;99.90;;;;;;5044783;28;20045;-66
2022/05/26 06:24:40;;;;;;;7.55;1.80;;;14.20;99.90;;;;;;5061884;28;20054;-66
2022/05/26 06:29:53;;;;;;;11.60;2.10;;;14.30;99.90;;;;;;5043371;28;20056;-65
2022/05/26 06:37:51;;;;;;;7.18;2.17;;;14.50;99.90;;;;;;5021930;28;20115;-65
2022/05/26 06:40:17;;;;;;;12.63;2.45;;;14.70;99.90;;;;;;5025420;28;20572;-64
2022/05/26 06:42:47;;;;;;;5.72;2.15;;;14.80;99.90;;;;;;5061066;28;20049;-64
2022/05/26 06:45:15;;;;;;;8.57;1.60;;;14.80;99.90;;;;;;5025948;28;20084;-66
2022/05/26 06:47:41;;;;;;;6.07;1.95;;;15.00;99.90;;;;;;5025038;28;20046;-64
2022/05/26 06:50:08;;;;;;;5.60;2.13;;;15.00;99.90;;;;;;5024853;28;20053;-65
2022/05/26 06:52:34;;;;;;;5.85;1.80;;;15.20;99.90;;;;;;5023159;28;20042;-65
2022/05/26 06:55:03;;;;;;;6.45;1.67;;;15.00;99.90;;;;;;5026458;28;20054;-65
2022/05/26 06:57:29;;;;;;;4.93;1.60;;;15.10;99.90;;;;;;5026462;28;20045;-65
2022/05/26 06:59:55;;;;;;;6.13;2.53;;;15.00;99.90;;;;;;5043735;28;20183;-63
2022/05/26 07:02:21;;;;;;;9.35;2.00;;;15.00;99.90;;;;;;5025722;28;20053;-66
2022/05/26 07:04:47;;;;;;;7.65;1.98;;;15.00;99.90;;;;;;5025596;28;20076;-66
2022/05/26 07:07:14;;;;;;;7.22;1.52;;;14.90;99.90;;;;;;5027217;28;20058;-67
2022/05/26 07:09:41;;;;;;;9.13;2.00;;;15.00;99.90;;;;;;5027187;28;20041;-67
2022/05/26 07:12:07;;;;;;;10.45;2.13;;;14.90;99.90;;;;;;5025279;28;20061;-72
2022/05/26 07:14:33;;;;;;;6.03;1.70;;;14.90;99.90;;;;;;5058647;28;20128;-72
2022/05/26 07:16:59;;;;;;;4.72;2.00;;;14.80;99.90;;;;;;5042836;28;20060;-72
2022/05/26 07:19:25;;;;;;;6.20;1.65;;;14.90;99.90;;;;;;5029025;28;20057;-72
2022/05/26 07:21:51;;;;;;;4.43;1.77;;;14.90;99.90;;;;;;5025674;28;20049;-71
2022/05/26 07:24:21;;;;;;;6.80;1.58;;;15.00;99.90;;;;;;5030762;28;20045;-71
2022/05/26 07:26:48;;;;;;;7.78;1.40;;;15.00;99.90;;;;;;5034332;28;20045;-71
2022/05/26 07:29:15;;;;;;;5.63;1.40;;;15.00;99.90;;;;;;5030784;28;20636;-72
2022/05/26 07:31:41;;;;;;;5.95;1.58;;;14.90;99.90;;;;;;5047039;28;20044;-72
2022/05/26 07:34:07;;;;;;;7.88;1.92;;;15.00;99.90;;;;;;5029727;28;20041;-72
2022/05/26 07:42:08;;;;;;;6.38;1.83;;;15.20;99.90;;;;;;5047741;28;20076;-72
2022/05/26 07:44:37;;;;;;;5.32;1.98;;;15.30;99.90;;;;;;5026106;28;20080;-72
2022/05/26 07:47:08;;;;;;;6.95;1.70;;;15.40;99.90;;;;;;5030615;28;20054;-72
2022/05/26 07:49:39;;;;;;;6.03;1.95;;;15.40;99.90;;;;;;5043066;28;20154;-72
2022/05/26 07:52:05;;;;;;;6.32;1.38;;;15.50;99.90;;;;;;5028968;28;20052;-72
2022/05/26 07:54:31;;;;;;;11.18;2.45;;;15.60;99.90;;;;;;5045102;28;20600;-71
2022/05/26 07:56:58;;;;;;;5.20;1.35;;;15.70;99.90;;;;;;5031409;28;20056;-71
2022/05/26 07:59:24;;;;;;;5.32;1.70;;;15.70;99.90;;;;;;5033409;28;20048;-71
2022/05/26 08:01:50;;;;;;;6.90;1.83;;;15.80;99.90;;;;;;5027966;28;20071;-71
2022/05/26 08:04:17;;;;;;;5.03;1.77;;;15.80;99.90;;;;;;5046849;28;20049;-72
2022/05/26 08:06:47;;;;;;;4.45;1.52;;;15.80;99.90;;;;;;5029545;28;20041;-72
2022/05/26 08:09:21;;;;;;;6.32;1.85;;;15.80;99.90;;;;;;5017735;28;20033;-72
2022/05/26 08:11:47;;;;;;;2.97;1.55;;;15.70;99.90;;;;;;5046042;28;20520;-72
2022/05/26 08:14:13;;;;;;;5.88;1.73;;;15.70;99.90;;;;;;5022074;28;20045;-72
2022/05/26 08:16:39;;;;;;;6.22;1.80;;;15.80;99.90;;;;;;5029448;28;20060;-72
2022/05/26 08:19:05;;;;;;;5.15;1.67;;;15.80;99.90;;;;;;5027787;28;20060;-72
2022/05/26 08:21:31;;;;;;;4.53;1.75;;;15.90;99.90;;;;;;5008117;28;20050;-72
2022/05/26 08:24:00;;;;;;;4.00;1.35;;;16.00;99.90;;;;;;5009552;28;20046;-72
2022/05/26 08:26:26;;;;;;;5.05;1.33;;;16.00;99.90;;;;;;5008290;28;20153;-72
2022/05/26 08:28:52;;;;;;;5.60;1.77;;;16.00;99.90;;;;;;5008488;28;20494;-72
2022/05/26 08:31:18;;;;;;;6.80;1.55;;;16.10;99.90;;;;;;5025632;28;20057;-72
2022/05/26 08:33:44;;;;;;;4.85;1.23;;;16.10;99.90;;;;;;5008096;28;20041;-72
2022/05/26 08:36:15;;;;;;;7.43;1.98;;;16.00;99.90;;;;;;5007571;28;20045;-71
2022/05/26 08:38:41;;;;;;;5.97;1.50;;;16.00;99.90;;;;;;5005324;28;20049;-72
2022/05/26 08:41:11;;;;;;;4.75;1.73;;;15.90;99.90;;;;;;5007893;28;20053;-72
2022/05/26 08:44:01;;;;;;;3.42;1.13;;;16.00;99.90;;;;;;5007620;28;20052;-72
2022/05/26 08:46:44;;;;;;;5.80;1.60;;;16.00;99.90;;;;;;4980232;28;20058;-72
2022/05/26 08:49:29;;;;;;;3.38;1.30;;;16.00;99.90;;;;;;5025607;28;20104;-72
2022/05/26 08:52:07;;;;;;;4.22;1.40;;;16.10;99.90;;;;;;5007969;28;20054;-71
2022/05/26 08:54:47;;;;;;;4.25;1.33;;;16.20;99.90;;;;;;5008481;28;20481;-71
2022/05/26 08:57:17;;;;;;;5.88;1.33;;;16.30;99.90;;;;;;5004021;28;20057;-71
2022/05/26 08:59:45;;;;;;;5.57;1.85;;;16.40;99.90;;;;;;5007609;28;20045;-71
2022/05/26 09:02:28;;;;;;;7.05;2.00;;;16.40;99.90;;;;;;5007675;28;20046;-71
2022/05/26 09:05:00;;;;;;;6.05;1.38;;;16.40;99.90;;;;;;5004667;28;20042;-71
2022/05/26 09:13:12;;;;;;;2.67;1.05;;;16.60;99.90;;;;;;5022538;28;20052;-72
2022/05/26 09:15:38;;;;;;;4.57;1.30;;;16.90;99.90;;;;;;5007066;28;20048;-72
2022/05/26 09:18:17;;;;;;;4.75;1.70;;;16.80;99.90;;;;;;5008020;28;20091;-72
2022/05/26 09:20:44;;;;;;;5.40;1.10;;;16.70;99.90;;;;;;5026171;28;20060;-72
2022/05/26 09:23:25;;;;;;;3.30;1.23;;;16.70;99.90;;;;;;5027276;28;20056;-72
2022/05/26 09:26:08;;;;;;;3.97;1.20;;;16.80;99.90;;;;;;5044389;28;20501;-72
2022/05/26 09:28:45;;;;;;;4.10;1.17;;;16.70;99.90;;;;;;5044693;28;20041;-72
2022/05/26 09:31:34;;;;;;;4.00;1.20;;;16.60;99.90;;;;;;5045142;28;20048;-72
2022/05/26 09:34:07;;;;;;;7.13;1.42;;;16.80;99.90;;;;;;5027682;28;20573;-72
2022/05/26 09:36:40;;;;;;;7.75;1.75;;;16.90;99.90;;;;;;5028012;28;20048;-72
2022/05/26 09:39:07;;;;;;;5.43;1.40;;;16.80;99.90;;;;;;5026467;28;20355;-72
2022/05/26 09:41:47;;;;;;;4.03;1.40;;;16.90;99.90;;;;;;5027932;28;20056;-72
2022/05/26 09:44:22;;;;;;;;;;;17.00;99.90;;;;;;5045641;28;20045;-72
2022/05/26 09:46:50;;;;;;;3.03;1.10;;;17.00;99.90;;;;;;5026705;28;19976;-72
2022/05/26 09:49:16;;;;;;;9.73;1.90;;;17.10;99.90;;;;;;5027074;28;20049;-72
2022/05/26 09:51:46;;;;;;;5.20;1.65;;;17.10;99.90;;;;;;5026576;28;20058;-72
2022/05/26 09:54:27;;;;;;;9.48;1.58;;;17.00;99.90;;;;;;5026677;28;20092;-72
2022/05/26 09:56:54;;;;;;;3.70;1.67;;;17.10;99.90;;;;;;5032580;28;20060;-72
2022/05/26 09:59:26;;;;;;;4.82;1.55;;;17.20;99.90;;;;;;5044893;28;20041;-72
2022/05/26 10:02:14;;;;;;;8.85;1.85;;;17.10;99.90;;;;;;5027180;28;20045;-71
2022/05/26 10:05:16;;;;;;;2.95;1.13;;;17.10;99.90;;;;;;5027407;28;20048;-72
2022/05/26 10:07:47;;;;;;;5.97;1.25;;;17.40;99.90;;;;;;5026645;28;20053;-72
2022/05/26 10:10:44;;;;;;;4.72;1.27;;;17.60;99.90;;;;;;5026920;28;20045;-72
2022/05/26 10:13:27;;;;;;;4.32;1.55;;;17.70;99.90;;;;;;5044537;28;20064;-72
2022/05/26 10:16:02;;;;;;;4.78;1.40;;;17.60;99.90;;;;;;5041125;28;20045;-72
2022/05/26 10:18:38;;;;;;;4.68;1.60;;;17.70;99.90;;;;;;5039947;28;20044;-72
2022/05/26 10:21:25;;;;;;;5.35;1.25;;;17.60;99.90;;;;;;5018689;28;20520;-72
2022/05/26 10:24:28;;;;;;;3.88;1.33;;;17.60;99.90;;;;;;5021381;28;20444;-72
2022/05/26 10:27:13;;;;;;;3.33;1.30;;;17.80;99.90;;;;;;5023007;28;20382;-71
2022/05/26 10:29:57;;;;;;;5.13;1.42;;;17.80;99.90;;;;;;5026617;28;20053;-71
2022/05/26 10:32:22;;;;;;;4.65;1.20;;;17.60;99.90;;;;;;5020906;28;20064;-72
2022/05/26 10:35:22;;;;;;;4.32;1.48;;;17.50;99.90;;;;;;5045202;28;20045;-72
2022/05/26 10:38:22;;;;;;;4.90;1.83;;;17.40;99.90;;;;;;5043021;28;20140;-72
2022/05/26 10:41:22;;;;;;;5.47;1.77;;;17.60;99.90;;;;;;5026121;28;20041;-72
2022/05/26 10:44:11;;;;;;;4.43;1.73;;;17.60;99.90;;;;;;5013072;28;20061;-72
2022/05/26 10:46:45;;;;;;;3.55;1.60;;;17.70;99.90;;;;;;5041938;28;20061;-72
2022/05/26 10:49:53;;;;;;;4.00;1.45;;;17.80;99.90;;;;;;5025977;28;20073;-72
2022/05/26 10:52:26;;;;;;;3.72;1.30;;;17.80;99.90;;;;;;5018339;28;20601;-72
2022/05/26 10:55:18;;;;;;;4.47;1.65;;;18.10;99.90;;;;;;5023694;28;20049;-72
2022/05/26 10:58:08;;;;;;;2.22;1.42;;;18.00;99.90;;;;;;5016856;28;20535;-71
2022/05/26 11:00:33;;;;;;;7.28;1.65;;;17.60;99.90;;;;;;5026100;28;20053;-72
2022/05/26 11:03:13;;;;;;;3.40;1.50;;;17.50;99.90;;;;;;5015016;28;20068;-72
2022/05/26 11:05:46;;;;;;;5.60;1.50;;;17.60;99.90;;;;;;5029084;28;20147;-72
2022/05/26 11:08:54;;;;;;;5.57;2.10;;;17.50;99.90;;;;;;5029464;28;20045;-72
2022/05/26 11:11:37;;;;;;;4.85;1.58;;;17.50;99.90;;;;;;4989280;28;20066;-72
2022/05/26 11:17:51;;;;;;;5.78;1.60;;;17.40;99.90;;;;;;4990035;28;20081;-72
2022/05/26 11:20:29;;;;;;;5.53;1.50;;;17.30;99.90;;;;;;5021896;28;20093;-72
2022/05/26 11:23:04;;;;;;;12.82;2.20;;;17.20;99.90;;;;;;4989620;28;20046;-72
2022/05/26 11:25:38;;;;;;;4.95;1.77;;;17.20;99.90;;;;;;5001650;28;20129;-72
2022/05/26 11:28:13;;;;;;;3.92;1.70;;;17.20;99.90;;;;;;4988504;28;20096;-72
2022/05/26 11:36:52;;;;;;;7.28;2.00;;;17.20;99.90;;;;;;5004931;28;20065;-71
2022/05/26 11:39:21;;;;;;;6.63;1.75;;;17.20;99.90;;;;;;4991815;28;20050;-72
2022/05/26 11:42:01;;;;;;;3.90;1.80;;;17.10;99.90;;;;;;4988799;28;20070;-72
2022/05/26 11:44:42;;;;;;;5.93;1.92;;;17.20;99.90;;;;;;5006065;28;20137;-72
2022/05/26 11:47:22;;;;;;;7.57;2.00;;;17.30;99.90;;;;;;4997132;28;20406;-72
2022/05/26 11:49:47;;;;;;;4.38;1.75;;;17.30;99.90;;;;;;5045417;28;20110;-72
2022/05/26 11:52:23;;;;;;;9.68;2.33;;;17.40;99.90;;;;;;5030151;28;20077;-72
2022/05/26 11:55:01;;;;;;;4.15;1.70;;;17.30;99.90;;;;;;5042853;28;20042;-72
2022/05/26 11:57:40;;;;;;;8.10;2.30;;;17.20;99.90;;;;;;5029462;28;20045;-72
2022/05/26 12:00:15;;;;;;;7.28;2.00;;;17.40;99.90;;;;;;5046354;28;20504;-72
2022/05/26 12:02:42;;;;;;;5.07;1.70;;;17.50;99.90;;;;;;5030522;28;20049;-72
2022/05/26 12:05:30;;;;;;;6.18;1.85;;;17.50;99.90;;;;;;5029736;28;20477;-71
2022/05/26 12:08:23;;;;;;;3.30;1.90;;;17.50;99.90;;;;;;5029222;28;20041;-71
2022/05/26 12:10:58;;;;;;;3.28;1.30;;;17.40;99.90;;;;;;5046686;28;20041;-71
2022/05/26 12:13:25;;;;;;;4.07;1.70;;;17.60;99.90;;;;;;5046887;28;20515;-72
2022/05/26 12:16:15;;;;;;;5.88;1.80;;;17.90;99.90;;;;;;5046054;28;20401;-72
2022/05/26 12:18:58;;;;;;;6.05;1.73;;;18.00;99.90;;;;;;5028017;28;20050;-71
2022/05/26 12:21:27;;;;;;;8.73;2.28;;;18.00;99.90;;;;;;5019871;28;20065;-71
2022/05/26 12:23:53;;;;;;;5.78;1.50;;;17.80;99.90;;;;;;5028322;28;20407;-71
2022/05/26 12:26:29;;;;;;;4.63;2.05;;;17.80;99.90;;;;;;5028208;28;20060;-71
2022/05/26 12:29:34;;;;;;;7.30;2.05;;;17.70;99.90;;;;;;5046561;28;20095;-72
2022/05/26 12:32:12;;;;;;;5.43;1.80;;;17.70;99.90;;;;;;5045597;28;20482;-71
2022/05/26 12:34:56;;;;;;;5.15;1.92;;;17.70;99.90;;;;;;5044058;28;20080;-72
2022/05/26 12:37:40;;;;;;;7.45;1.80;;;17.80;99.90;;;;;;5024952;28;20072;-72
2022/05/26 12:40:32;;;;;;;3.08;1.55;;;17.90;99.90;;;;;;5028958;28;20046;-72
2022/05/26 12:43:18;;;;;;;4.70;1.55;;;18.00;99.90;;;;;;5020217;28;20109;-71
2022/05/26 12:46:04;;;;;;;5.65;1.70;;;17.90;99.90;;;;;;5038841;28;20045;-71
2022/05/26 12:49:13;;;;;;;4.70;2.28;;;18.00;99.90;;;;;;5024738;28;20494;-71
2022/05/26 12:51:39;;;;;;;4.70;2.03;;;18.00;99.90;;;;;;5024918;28;20060;-71
2022/05/26 12:54:18;;;;;;;5.47;1.80;;;18.10;99.90;;;;;;5032074;28;20075;-72
2022/05/26 12:56:57;;;;;;;5.22;1.48;;;18.40;99.90;;;;;;5028069;28;20073;-72
2022/05/26 12:59:31;;;;;;;5.57;1.67;;;18.70;99.90;;;;;;5028298;28;20053;-71
2022/05/26 13:01:57;;;;;;;5.30;1.55;;;18.60;99.90;;;;;;5031714;28;20324;-72
2022/05/26 13:04:32;;;;;;;4.95;2.05;;;18.60;99.90;;;;;;5027364;28;20393;-72
2022/05/26 13:07:04;;;;;;;7.30;1.58;;;18.40;99.90;;;;;;5041663;28;20045;-71
2022/05/26 13:09:35;;;;;;;7.43;1.77;;;18.60;99.90;;;;;;5061385;28;20125;-71
2022/05/26 13:12:04;;;;;;;4.88;1.60;;;18.90;99.90;;;;;;5031700;28;20072;-72
2022/05/26 13:14:50;;;;;;;6.03;1.85;;;19.20;99.90;;;;;;5039084;28;20121;-72
2022/05/26 13:17:24;;;;;;;5.18;1.67;;;19.20;99.90;;;;;;5045920;28;20052;-72
2022/05/26 13:20:02;;;;;;;5.65;2.03;;;19.00;99.90;;;;;;5045770;28;20057;-71
2022/05/26 13:22:34;;;;;;;7.97;2.40;;;19.00;99.90;;;;;;5050733;28;20058;-72
2022/05/26 13:25:15;;;;;;;4.57;1.92;;;19.20;99.90;;;;;;5038469;28;20034;-72
2022/05/26 13:27:52;;;;;;;6.07;1.70;;;19.20;99.90;;;;;;5044740;28;20072;-72
2022/05/26 13:33:19;;;;;;;6.20;2.00;;;18.90;99.90;;;;;;5044447;28;20047;-72
2022/05/26 13:35:51;;;;;;;5.75;1.85;;;18.80;99.90;;;;;;5044693;28;20029;-72
2022/05/26 13:38:46;;;;;;;8.55;1.80;;;18.70;99.90;;;;;;5039288;28;20065;-72
2022/05/26 13:41:27;;;;;;;5.47;1.80;;;18.70;99.90;;;;;;5023097;28;20131;-72
2022/05/26 13:43:54;;;;;;;7.82;1.92;;;18.40;99.90;;;;;;5026499;28;20047;-71
2022/05/26 13:46:31;;;;;;;7.05;2.38;;;18.20;99.90;;;;;;5018529;28;20053;-71
2022/05/26 13:49:15;;;;;;;14.63;2.40;;;18.40;99.90;;;;;;5014630;28;20046;-71
2022/05/26 13:51:45;;;;;;;8.65;2.00;;;18.20;99.90;;;;;;5026337;28;20053;-71
2022/05/26 13:54:31;;;;;;;6.88;2.40;;;18.20;99.90;;;;;;5027346;28;20515;-71